createdAt,value
2022-09-01T00:00:02.687Z,20.57
2022-09-01T00:02:32.321Z,19.43
2022-09-01T00:04:59.486Z,21.60
2022-09-01T00:07:30.676Z,19.20
2022-09-01T00:09:58.811Z,21.10
2022-09-01T00:12:25.949Z,19.73
2022-09-01T00:14:53.010Z,18.40
2022-09-01T00:17:19.847Z,22.33
2022-09-01T00:19:46.691Z,18.23
2022-09-01T00:22:13.507Z,21.40
2022-09-01T00:24:40.348Z,18.33
2022-09-01T00:27:07.287Z,15.17
2022-09-01T00:29:34.673Z,16.23
2022-09-01T00:32:01.735Z,15.27
2022-09-01T00:34:29.126Z,16.93
2022-09-01T00:36:55.922Z,15.13
2022-09-01T00:39:23.902Z,15.03
2022-09-01T00:41:51.360Z,22.07
2022-09-01T00:44:23.308Z,25.47
2022-09-01T00:46:55.312Z,30.87
2022-09-01T00:49:43.461Z,33.77
2022-09-01T00:52:12.119Z,28.43
2022-09-01T00:54:44.784Z,29.23
2022-09-01T00:57:12.810Z,29.47
2022-09-01T00:59:47.875Z,26.23
2022-09-01T01:02:15.736Z,35.07
2022-09-01T01:04:43.676Z,42.27
2022-09-01T01:07:11.255Z,37.83
2022-09-01T01:09:42.345Z,39.00
2022-09-01T01:12:18.189Z,37.47
2022-09-01T01:14:50.084Z,40.43
2022-09-01T01:17:18.955Z,36.77
2022-09-01T01:20:07.330Z,42.23
2022-09-01T01:23:02.263Z,32.93
2022-09-01T01:25:50.904Z,40.70
2022-09-01T01:28:20.273Z,40.77
2022-09-01T01:31:01.373Z,38.83
2022-09-01T01:33:34.019Z,40.23
2022-09-01T01:36:03.638Z,40.77
2022-09-01T01:38:31.215Z,42.93
2022-09-01T01:40:58.915Z,39.23
2022-09-01T01:43:27.590Z,37.23
2022-09-01T01:45:59.165Z,33.03
2022-09-01T01:48:34.560Z,33.07
2022-09-01T01:51:02.919Z,35.47
2022-09-01T01:53:29.873Z,32.87
2022-09-01T01:56:00.061Z,33.37
2022-09-01T01:58:30.895Z,31.03
2022-09-01T02:00:59.108Z,30.00
2022-09-01T02:03:30.935Z,28.13
2022-09-01T02:05:57.871Z,32.30
2022-09-01T02:08:25.929Z,30.07
2022-09-01T02:10:55.298Z,30.00
2022-09-01T02:13:28.479Z,29.23
2022-09-01T02:15:56.874Z,26.57
2022-09-01T02:18:34.147Z,22.47
2022-09-01T02:21:11.137Z,29.77
2022-09-01T02:23:41.503Z,25.27
2022-09-01T02:26:18.494Z,38.93
2022-09-01T02:28:55.358Z,30.10
2022-09-01T02:31:27.939Z,23.83
2022-09-01T02:33:55.505Z,24.97
2022-09-01T02:36:25.906Z,25.73
2022-09-01T02:38:56.633Z,25.57
2022-09-01T02:41:25.158Z,22.80
2022-09-01T02:43:54.106Z,23.93
2022-09-01T02:46:24.285Z,29.43
2022-09-01T02:48:53.220Z,25.97
2022-09-01T02:51:23.687Z,31.73
2022-09-01T02:53:52.093Z,31.77
2022-09-01T02:56:25.099Z,24.43
2022-09-01T02:58:53.723Z,31.90
2022-09-01T03:01:32.105Z,28.30
2022-09-01T03:04:03.157Z,27.50
2022-09-01T03:06:34.149Z,30.87
2022-09-01T03:09:01.971Z,30.33
2022-09-01T03:11:31.828Z,26.80
2022-09-01T03:13:59.331Z,26.73
2022-09-01T03:16:32.188Z,28.10
2022-09-01T03:19:00.634Z,27.80
2022-09-01T03:21:27.644Z,25.83
2022-09-01T03:23:54.591Z,22.30
2022-09-01T03:26:22.505Z,22.93
2022-09-01T03:28:52.930Z,25.40
2022-09-01T03:31:20.597Z,25.27
2022-09-01T03:33:49.130Z,18.90
2022-09-01T03:36:22.308Z,23.00
2022-09-01T03:38:51.938Z,24.73
2022-09-01T03:41:25.212Z,28.13
2022-09-01T03:43:55.126Z,22.07
2022-09-01T03:46:22.466Z,19.53
2022-09-01T03:48:52.778Z,19.23
2022-09-01T03:51:22.606Z,17.83
2022-09-01T03:53:54.437Z,20.20
2022-09-01T03:56:24.139Z,22.17
2022-09-01T03:58:52.079Z,19.00
2022-09-01T04:01:20.708Z,18.57
2022-09-01T04:03:48.847Z,20.10
2022-09-01T04:06:20.588Z,22.40
2022-09-01T04:08:47.922Z,19.27
2022-09-01T04:11:18.691Z,21.23
2022-09-01T04:13:47.361Z,19.97
2022-09-01T04:16:44.431Z,20.27
2022-09-01T04:19:20.143Z,22.53
2022-09-01T04:21:50.360Z,18.10
2022-09-01T04:24:19.149Z,22.10
2022-09-01T04:26:48.778Z,20.90
2022-09-01T04:29:19.370Z,20.27
2022-09-01T04:31:53.386Z,19.23
2022-09-01T04:34:22.721Z,21.43
2022-09-01T04:36:54.467Z,17.17
2022-09-01T04:39:23.963Z,19.33
2022-09-01T04:41:50.783Z,19.20
2022-09-01T04:44:19.278Z,18.97
2022-09-01T04:46:48.304Z,18.93
2022-09-01T04:49:22.091Z,15.87
2022-09-01T04:51:53.863Z,17.97
2022-09-01T04:54:23.212Z,16.50
2022-09-01T04:56:52.497Z,16.87
2022-09-01T04:59:23.061Z,20.30
2022-09-01T05:01:55.662Z,21.20
2022-09-01T05:04:27.536Z,22.37
2022-09-01T05:07:01.076Z,22.40
2022-09-01T05:09:38.106Z,23.43
2022-09-01T05:12:27.825Z,22.97
2022-09-01T05:14:55.880Z,27.23
2022-09-01T05:17:25.937Z,22.47
2022-09-01T05:19:54.350Z,23.37
2022-09-01T05:22:22.992Z,23.20
2022-09-01T05:25:05.126Z,20.13
2022-09-01T05:27:32.424Z,17.43
2022-09-01T05:30:01.256Z,16.67
2022-09-01T05:32:33.592Z,19.20
2022-09-01T05:35:01.014Z,16.57
2022-09-01T05:37:30.268Z,19.50
2022-09-01T05:39:57.757Z,19.47
2022-09-01T05:42:24.709Z,17.47
2022-09-01T05:44:53.165Z,20.20
2022-09-01T05:47:22.029Z,19.53
2022-09-01T05:49:53.530Z,18.23
2022-09-01T05:52:24.970Z,17.53
2022-09-01T05:54:53.782Z,20.00
2022-09-01T05:57:34.237Z,18.73
2022-09-01T06:00:11.028Z,20.07
2022-09-01T06:02:42.895Z,19.67
2022-09-01T06:05:15.871Z,19.37
2022-09-01T06:07:44.214Z,20.17
2022-09-01T06:10:12.923Z,18.43
2022-09-01T06:12:40.791Z,16.40
2022-09-01T06:15:15.781Z,17.23
2022-09-01T06:17:46.331Z,15.87
2022-09-01T06:20:14.153Z,18.27
2022-09-01T06:22:44.777Z,19.70
2022-09-01T06:25:12.043Z,18.33
2022-09-01T06:27:44.360Z,19.67
2022-09-01T06:30:20.184Z,18.00
2022-09-01T06:32:53.802Z,18.27
2022-09-01T06:35:22.115Z,18.87
2022-09-01T06:37:49.040Z,19.57
2022-09-01T06:40:33.891Z,17.30
2022-09-01T06:43:02.253Z,18.87
2022-09-01T06:45:29.105Z,15.93
2022-09-01T06:48:00.065Z,16.00
2022-09-01T06:53:34.444Z,16.30
2022-09-01T06:56:09.253Z,15.40
2022-09-01T06:58:38.026Z,17.87
2022-09-01T07:01:14.563Z,16.53
2022-09-01T07:03:47.049Z,17.23
2022-09-01T07:10:05.667Z,15.03
2022-09-01T07:13:04.797Z,15.00
2022-09-01T07:18:22.543Z,14.50
2022-09-01T07:21:36.307Z,14.40
2022-09-01T07:23:47.353Z,14.67
2022-09-01T07:26:26.521Z,14.97
2022-09-01T07:29:04.182Z,14.57
2022-09-01T07:34:46.483Z,14.43
2022-09-01T07:38:46.872Z,12.83
2022-09-01T07:43:23.169Z,12.50
2022-09-01T07:49:29.630Z,9.63
2022-09-01T07:51:51.193Z,6.90
2022-09-01T07:54:21.208Z,7.43
2022-09-01T07:56:48.849Z,6.77
2022-09-01T07:59:16.025Z,9.30
2022-09-01T08:02:05.163Z,9.50
2022-09-01T08:04:34.119Z,8.40
2022-09-01T08:07:01.758Z,9.60
2022-09-01T08:09:38.534Z,9.20
2022-09-01T08:12:11.405Z,9.90
2022-09-01T08:14:43.392Z,10.43
2022-09-01T08:17:33.045Z,8.70
2022-09-01T08:19:59.251Z,8.20
2022-09-01T08:22:49.066Z,10.50
2022-09-01T08:25:24.686Z,10.50
2022-09-01T08:27:59.865Z,10.10
2022-09-01T08:30:27.790Z,9.13
2022-09-01T08:32:54.723Z,7.53
2022-09-01T08:35:22.488Z,6.90
2022-09-01T08:37:49.313Z,6.30
2022-09-01T08:40:20.371Z,5.40
2022-09-01T08:43:01.552Z,6.27
2022-09-01T08:45:31.303Z,5.00
2022-09-01T08:51:37.603Z,5.80
2022-09-01T08:54:14.777Z,5.40
2022-09-01T08:56:45.451Z,5.83
2022-09-01T08:59:16.116Z,5.43
2022-09-01T09:02:45.096Z,5.13
2022-09-01T09:05:38.415Z,8.90
2022-09-01T09:08:13.868Z,6.50
2022-09-01T09:11:10.685Z,4.43
2022-09-01T09:13:58.868Z,5.27
2022-09-01T09:16:53.741Z,5.53
2022-09-01T09:19:24.196Z,4.63
2022-09-01T09:21:54.174Z,4.87
2022-09-01T09:24:49.912Z,5.30
2022-09-01T09:27:32.754Z,4.80
2022-09-01T09:30:20.472Z,4.30
2022-09-01T09:35:38.487Z,6.10
2022-09-01T09:38:22.676Z,4.93
2022-09-01T09:41:18.424Z,5.63
2022-09-01T09:44:11.557Z,5.00
2022-09-01T09:46:43.725Z,5.43
2022-09-01T09:49:35.122Z,5.70
2022-09-01T09:52:09.688Z,6.17
2022-09-01T09:54:41.769Z,7.13
2022-09-01T09:57:08.473Z,6.30
2022-09-01T10:00:03.297Z,6.90
2022-09-01T10:02:42.350Z,5.83
2022-09-01T10:05:36.277Z,6.27
2022-09-01T10:08:05.550Z,5.13
2022-09-01T10:10:44.131Z,6.13
2022-09-01T10:13:18.052Z,4.70
2022-09-01T10:15:53.359Z,6.70
2022-09-01T10:18:30.789Z,4.33
2022-09-01T10:21:06.657Z,4.10
2022-09-01T10:23:36.947Z,5.07
2022-09-01T10:26:13.657Z,4.03
2022-09-01T10:28:52.793Z,5.87
2022-09-01T10:31:22.168Z,4.30
2022-09-01T10:33:50.874Z,5.10
2022-09-01T10:36:19.909Z,3.70
2022-09-01T10:38:53.659Z,3.27
2022-09-01T10:41:44.758Z,7.00
2022-09-01T10:44:21.144Z,3.50
2022-09-01T10:46:50.765Z,4.03
2022-09-01T10:49:46.516Z,4.07
2022-09-01T10:52:43.387Z,4.83
2022-09-01T10:55:24.932Z,3.70
2022-09-01T10:59:30.018Z,4.10
2022-09-01T11:03:57.174Z,14.93
2022-09-01T11:06:42.873Z,3.40
2022-09-01T11:09:40.420Z,4.77
2022-09-01T11:12:41.990Z,3.63
2022-09-01T11:15:17.064Z,3.30
2022-09-01T11:17:53.171Z,3.60
2022-09-01T11:20:38.720Z,2.60
2022-09-01T11:23:12.412Z,3.60
2022-09-01T11:26:18.623Z,3.13
2022-09-01T11:28:42.027Z,4.07
2022-09-01T11:31:08.959Z,2.67
2022-09-01T11:34:01.652Z,2.43
2022-09-01T11:36:44.807Z,4.20
2022-09-01T11:39:17.336Z,2.43
2022-09-01T11:42:00.852Z,3.03
2022-09-01T11:44:42.625Z,2.27
2022-09-01T11:47:25.350Z,3.67
2022-09-01T11:50:13.984Z,3.27
2022-09-01T11:52:42.694Z,3.13
2022-09-01T11:55:10.975Z,4.27
2022-09-01T11:57:40.656Z,3.50
2022-09-01T12:00:27.457Z,3.63
2022-09-01T12:02:55.456Z,3.70
2022-09-01T12:05:29.672Z,4.82
2022-09-01T12:07:58.129Z,3.03
2022-09-01T12:10:45.685Z,6.30
2022-09-01T12:13:19.769Z,5.70
2022-09-01T12:16:16.411Z,2.88
2022-09-01T12:18:51.691Z,2.20
2022-09-01T12:21:33.820Z,2.47
2022-09-01T12:24:22.452Z,2.83
2022-09-01T12:26:54.176Z,3.35
2022-09-01T12:29:23.122Z,2.40
2022-09-01T12:31:52.717Z,6.45
2022-09-01T12:34:27.536Z,2.85
2022-09-01T12:37:03.155Z,2.25
2022-09-01T12:39:36.254Z,3.05
2022-09-01T12:42:07.428Z,2.42
2022-09-01T12:44:42.547Z,2.92
2022-09-01T12:47:13.540Z,1.95
2022-09-01T12:49:45.398Z,2.60
2022-09-01T12:52:20.379Z,2.45
2022-09-01T12:54:50.370Z,3.65
2022-09-01T12:57:49.746Z,3.58
2022-09-01T13:00:19.775Z,2.83
2022-09-01T13:03:08.270Z,3.80
2022-09-01T13:05:47.196Z,3.00
2022-09-01T13:08:18.449Z,2.40
2022-09-01T13:11:04.068Z,2.30
2022-09-01T13:13:31.222Z,2.50
2022-09-01T13:16:02.555Z,4.03
2022-09-01T13:18:29.988Z,2.85
2022-09-01T13:20:58.323Z,4.55
2022-09-01T13:23:25.338Z,2.50
2022-09-01T13:25:52.584Z,2.55
2022-09-01T13:28:21.012Z,2.38
2022-09-01T13:36:52.189Z,2.67
2022-09-01T13:39:23.022Z,4.35
2022-09-01T13:41:49.957Z,2.63
2022-09-01T13:44:18.427Z,2.80
2022-09-01T13:47:28.766Z,2.30
2022-09-01T13:52:21.591Z,3.70
2022-09-01T13:54:48.547Z,2.05
2022-09-01T13:57:16.526Z,2.95
2022-09-01T13:59:44.562Z,2.83
2022-09-01T14:02:11.408Z,2.47
2022-09-01T14:04:38.542Z,3.00
2022-09-01T14:07:05.715Z,3.30
2022-09-01T14:09:32.696Z,2.35
2022-09-01T14:11:59.559Z,2.28
2022-09-01T14:14:26.660Z,2.22
2022-09-01T14:16:57.198Z,2.58
2022-09-01T14:19:25.570Z,2.50
2022-09-01T14:21:53.122Z,2.83
2022-09-01T14:24:20.836Z,4.03
2022-09-01T14:26:53.494Z,14.13
2022-09-01T14:29:20.407Z,3.83
2022-09-01T14:31:47.542Z,5.50
2022-09-01T14:34:15.463Z,2.15
2022-09-01T14:36:42.480Z,2.55
2022-09-01T14:39:12.867Z,2.70
2022-09-01T14:41:39.673Z,2.55
2022-09-01T14:44:06.806Z,3.08
2022-09-01T14:46:39.953Z,2.97
2022-09-01T14:49:11.845Z,2.80
2022-09-01T14:54:30.573Z,2.40
2022-09-01T14:59:53.248Z,4.75
2022-09-01T15:02:22.863Z,3.63
2022-09-01T15:04:53.872Z,3.08
2022-09-01T15:07:20.881Z,2.60
2022-09-01T15:09:47.679Z,2.63
2022-09-01T15:12:14.570Z,2.38
2022-09-01T15:14:41.448Z,4.32
2022-09-01T15:17:09.004Z,2.65
2022-09-01T15:19:35.868Z,3.50
2022-09-01T15:22:03.272Z,4.25
2022-09-01T15:24:30.248Z,2.28
2022-09-01T15:26:57.232Z,2.35
2022-09-01T15:29:25.251Z,2.13
2022-09-01T15:31:53.850Z,2.67
2022-09-01T15:34:20.710Z,2.00
2022-09-01T15:36:47.501Z,2.75
2022-09-01T15:39:14.571Z,2.83
2022-09-01T15:41:43.983Z,1.92
2022-09-01T15:44:11.076Z,4.37
2022-09-01T15:46:39.076Z,2.20
2022-09-01T15:49:09.522Z,2.55
2022-09-01T15:51:37.771Z,3.00
2022-09-01T15:54:13.593Z,2.87
2022-09-01T15:56:40.744Z,1.67
2022-09-01T15:59:08.993Z,2.40
2022-09-01T16:01:40.109Z,1.87
2022-09-01T16:04:08.612Z,1.97
2022-09-01T16:06:35.544Z,1.80
2022-09-01T16:09:02.963Z,1.73
2022-09-01T16:11:29.844Z,2.70
2022-09-01T16:13:56.906Z,1.73
2022-09-01T16:16:36.223Z,2.20
2022-09-01T16:19:17.380Z,2.63
2022-09-01T16:22:07.353Z,2.43
2022-09-01T16:24:44.789Z,2.00
2022-09-01T16:27:15.599Z,1.77
2022-09-01T16:29:55.040Z,3.60
2022-09-01T16:32:23.428Z,2.67
2022-09-01T16:34:53.453Z,2.47
2022-09-01T16:37:53.585Z,2.23
2022-09-01T16:40:42.868Z,2.93
2022-09-01T16:43:31.062Z,1.87
2022-09-01T16:46:11.205Z,3.20
2022-09-01T16:48:41.790Z,2.20
2022-09-01T16:51:38.059Z,1.87
2022-09-01T16:54:42.303Z,1.90
2022-09-01T16:57:27.160Z,4.47
2022-09-01T17:00:02.752Z,1.87
2022-09-01T17:02:44.777Z,2.07
2022-09-01T17:05:26.298Z,3.77
2022-09-01T17:08:06.893Z,2.17
2022-09-01T17:10:50.639Z,2.70
2022-09-01T17:13:28.214Z,2.63
2022-09-01T17:16:07.898Z,1.97
2022-09-01T17:18:51.122Z,2.03
2022-09-01T17:21:22.673Z,1.70
2022-09-01T17:24:12.258Z,2.37
2022-09-01T17:26:41.426Z,4.20
2022-09-01T17:29:24.535Z,2.93
2022-09-01T17:32:17.134Z,2.30
2022-09-01T17:34:58.197Z,1.93
2022-09-01T17:38:01.100Z,1.83
2022-09-01T17:40:58.955Z,3.07
2022-09-01T17:43:35.991Z,2.20
2022-09-01T17:46:41.713Z,2.53
2022-09-01T17:49:38.203Z,2.53
2022-09-01T17:52:40.016Z,2.30
2022-09-01T17:55:09.774Z,2.47
2022-09-01T17:58:06.485Z,5.37
2022-09-01T18:00:49.013Z,2.13
2022-09-01T18:03:34.498Z,2.07
2022-09-01T18:06:10.073Z,1.93
2022-09-01T18:08:43.021Z,2.03
2022-09-01T18:11:22.982Z,2.23
2022-09-01T18:13:58.708Z,1.80
2022-09-01T18:16:31.973Z,3.53
2022-09-01T18:19:03.706Z,2.10
2022-09-01T18:21:36.337Z,5.60
2022-09-01T18:24:17.301Z,2.73
2022-09-01T18:26:48.194Z,2.63
2022-09-01T18:29:15.516Z,2.80
2022-09-01T18:31:58.460Z,4.97
2022-09-01T18:35:02.009Z,2.67
2022-09-01T18:37:53.182Z,2.17
2022-09-01T18:40:37.570Z,2.50
2022-09-01T18:43:37.021Z,2.60
2022-09-01T18:46:28.097Z,2.63
2022-09-01T18:49:00.948Z,2.80
2022-09-01T18:51:39.591Z,3.20
2022-09-01T18:54:14.602Z,2.77
2022-09-01T18:57:02.104Z,2.47
2022-09-01T18:59:51.327Z,3.10
2022-09-01T19:02:35.322Z,2.37
2022-09-01T19:05:30.051Z,1.90
2022-09-01T19:08:29.475Z,2.13
2022-09-01T19:11:24.659Z,2.53
2022-09-01T19:14:30.049Z,2.20
2022-09-01T19:17:21.082Z,1.90
2022-09-01T19:20:16.717Z,2.20
2022-09-01T19:23:12.339Z,2.57
2022-09-01T19:25:41.389Z,4.63
2022-09-01T19:28:32.972Z,3.47
2022-09-01T19:31:19.611Z,3.33
2022-09-01T19:33:54.346Z,3.87
2022-09-01T19:36:37.095Z,3.70
2022-09-01T19:39:08.656Z,6.00
2022-09-01T19:41:54.098Z,3.63
2022-09-01T19:45:05.167Z,3.87
2022-09-01T19:47:39.566Z,4.10
2022-09-01T19:50:57.552Z,3.83
2022-09-01T19:54:29.196Z,3.10
2022-09-01T19:56:55.946Z,3.80
2022-09-01T19:59:46.730Z,5.87
2022-09-01T20:02:25.408Z,3.70
2022-09-01T20:05:31.903Z,4.83
2022-09-01T20:08:24.283Z,5.30
2022-09-01T20:10:56.361Z,4.37
2022-09-01T20:13:32.085Z,6.03
2022-09-01T20:16:12.279Z,4.50
2022-09-01T20:19:03.179Z,5.97
2022-09-01T20:21:31.304Z,5.17
2022-09-01T20:24:08.329Z,5.83
2022-09-01T20:27:03.108Z,5.50
2022-09-01T20:29:36.023Z,4.90
2022-09-01T20:32:04.171Z,5.27
2022-09-01T20:34:44.733Z,5.67
2022-09-01T20:37:11.595Z,6.83
2022-09-01T20:40:00.718Z,7.70
2022-09-01T20:42:40.421Z,9.87
2022-09-01T20:45:18.072Z,4.63
2022-09-01T20:47:58.139Z,5.90
2022-09-01T20:51:02.737Z,5.87
2022-09-01T20:53:38.089Z,5.80
2022-09-01T20:56:20.082Z,4.73
2022-09-01T20:59:17.981Z,5.67
2022-09-01T21:02:33.855Z,7.07
2022-09-01T21:05:06.809Z,7.43
2022-09-01T21:08:14.417Z,4.93
2022-09-01T21:11:03.174Z,4.73
2022-09-01T21:14:14.199Z,7.07
2022-09-01T21:17:03.753Z,4.40
2022-09-01T21:19:48.973Z,5.57
2022-09-01T21:22:21.771Z,6.10
2022-09-01T21:24:50.609Z,4.57
2022-09-01T21:27:24.348Z,5.00
2022-09-01T21:29:59.977Z,5.43
2022-09-01T21:32:31.743Z,4.10
2022-09-01T21:34:59.651Z,4.27
2022-09-01T21:37:28.472Z,5.97
2022-09-01T21:39:56.116Z,4.93
2022-09-01T21:42:27.924Z,4.80
2022-09-01T21:44:56.231Z,4.70
2022-09-01T21:47:23.496Z,4.80
2022-09-01T21:49:50.336Z,8.07
2022-09-01T21:52:17.613Z,4.40
2022-09-01T21:54:44.393Z,4.73
2022-09-01T21:57:11.289Z,4.63
2022-09-01T21:59:38.094Z,3.60
2022-09-01T22:02:07.159Z,5.00
2022-09-01T22:04:38.275Z,4.33
2022-09-01T22:07:06.514Z,3.90
2022-09-01T22:09:33.389Z,3.23
2022-09-01T22:12:00.183Z,5.47
2022-09-01T22:14:27.859Z,3.40
2022-09-01T22:16:54.880Z,4.87
2022-09-01T22:19:21.694Z,4.43
2022-09-01T22:21:48.965Z,3.50
2022-09-01T22:24:19.036Z,3.37
2022-09-01T22:26:47.966Z,3.50
2022-09-01T22:29:15.565Z,3.50
2022-09-01T22:31:42.352Z,3.50
2022-09-01T22:34:09.230Z,3.70
2022-09-01T22:36:41.699Z,3.73
2022-09-01T22:39:09.879Z,4.00
2022-09-01T22:41:38.450Z,3.53
2022-09-01T22:44:06.196Z,3.43
2022-09-01T22:46:35.515Z,2.83
2022-09-01T22:49:03.455Z,3.30
2022-09-01T22:51:31.438Z,3.07
2022-09-01T22:53:58.487Z,3.17
2022-09-01T22:56:28.747Z,3.77
2022-09-01T22:58:58.910Z,2.93
2022-09-01T23:01:31.459Z,2.77
2022-09-01T23:04:01.714Z,3.33
2022-09-01T23:06:30.007Z,3.13
2022-09-01T23:08:59.809Z,2.60
2022-09-01T23:11:27.561Z,4.30
2022-09-01T23:13:57.451Z,2.50
2022-09-01T23:16:25.734Z,2.60
2022-09-01T23:18:53.766Z,2.80
2022-09-01T23:21:24.171Z,3.00
2022-09-01T23:23:58.712Z,2.80
2022-09-01T23:26:26.989Z,2.83
2022-09-01T23:28:53.845Z,3.17
2022-09-01T23:31:24.851Z,3.00
2022-09-01T23:33:52.281Z,2.70
2022-09-01T23:36:24.858Z,2.73
2022-09-01T23:38:53.120Z,2.60
2022-09-01T23:41:24.851Z,4.43
2022-09-01T23:43:53.146Z,3.70
2022-09-01T23:46:26.502Z,2.90
2022-09-01T23:48:54.308Z,3.27
2022-09-01T23:51:22.442Z,3.00
2022-09-01T23:53:49.587Z,2.70
2022-09-01T23:56:25.943Z,2.57
2022-09-01T23:58:53.009Z,2.93
